createdAt,value
2023-02-24T00:08:45.306Z,8
2023-02-24T00:43:41.467Z,8
2023-02-24T00:49:42.691Z,8
2023-02-24T00:56:10.872Z,8
2023-02-24T01:02:42.335Z,7.9
2023-02-24T01:15:31.421Z,7.8
2023-02-24T01:21:52.035Z,7.9
2023-02-24T02:00:24.795Z,7.9
2023-02-24T02:12:56.507Z,7.6
2023-02-24T02:25:43.703Z,7.7
2023-02-24T02:31:38.829Z,7.4
2023-02-24T02:37:44.626Z,7.4
2023-02-24T02:49:52.645Z,7.4
2023-02-24T02:56:24.092Z,7.4
2023-02-24T03:02:59.960Z,7.3
2023-02-24T03:16:13.448Z,7
2023-02-24T03:28:50.314Z,6.7
2023-02-24T03:35:23.372Z,6.8
2023-02-24T03:41:51.679Z,6.8
2023-02-24T04:01:05.148Z,6.5
2023-02-24T04:07:36.286Z,6.6
2023-02-24T04:14:15.122Z,6.6
2023-02-24T04:26:52.323Z,6.7
2023-02-24T04:40:06.013Z,6.2
2023-02-24T04:53:02.441Z,6.3
2023-02-24T04:59:09.476Z,6.3
2023-02-24T05:05:22.110Z,6.3
2023-02-24T05:11:45.183Z,6.3
2023-02-24T05:17:55.695Z,6.3
2023-02-24T05:24:00.001Z,6.2
2023-02-24T05:30:20.400Z,6.4
2023-02-24T05:36:25.786Z,6.1
2023-02-24T05:42:21.325Z,6.3
2023-02-24T05:49:53.197Z,6.1
2023-02-24T06:02:17.210Z,5.9
2023-02-24T06:14:37.716Z,5.9
2023-02-24T06:20:41.162Z,6
2023-02-24T06:38:57.890Z,6.1
2023-02-24T06:44:52.090Z,5.9
2023-02-24T06:50:54.351Z,5.9
2023-02-24T06:56:53.535Z,5.9
2023-02-24T07:02:52.242Z,6
2023-02-24T07:08:51.019Z,5.9
2023-02-24T07:14:43.107Z,6
2023-02-24T07:20:39.454Z,6
2023-02-24T07:26:29.498Z,6
2023-02-24T07:32:20.943Z,6.1
2023-02-24T07:38:18.061Z,6.1
2023-02-24T07:44:20.319Z,6.2
2023-02-24T07:50:10.902Z,6
2023-02-24T07:56:04.859Z,6.2
2023-02-24T08:01:57.692Z,6.2
2023-02-24T08:13:54.262Z,5.9
2023-02-24T08:19:55.950Z,6.1
2023-02-24T08:25:51.042Z,6
2023-02-24T08:31:43.302Z,6.1
2023-02-24T08:37:38.333Z,6.3
2023-02-24T08:43:31.391Z,6.4
2023-02-24T08:49:21.288Z,6.3
2023-02-24T08:55:22.368Z,6.4
2023-02-24T09:01:14.253Z,6.2
2023-02-24T09:07:11.507Z,6.4
2023-02-24T09:13:00.450Z,6.3
2023-02-24T09:18:53.303Z,6.4
2023-02-24T09:24:44.246Z,6.3
2023-02-24T09:30:34.698Z,6.4
2023-02-24T09:36:29.023Z,6.3
2023-02-24T09:42:19.808Z,6.4
2023-02-24T09:54:33.604Z,6.6
2023-02-24T10:00:25.273Z,6.3
2023-02-24T10:06:18.885Z,6.6
2023-02-24T10:12:14.378Z,6.6
2023-02-24T10:18:10.866Z,6.8
2023-02-24T10:30:06.895Z,6.5
2023-02-24T10:36:02.818Z,6.5
2023-02-24T10:54:30.223Z,6.9
2023-02-24T11:00:37.090Z,6.9
2023-02-24T11:06:30.404Z,7
2023-02-24T11:12:25.238Z,6.7
2023-02-24T11:18:15.680Z,6.9
2023-02-24T11:24:09.665Z,7
2023-02-24T11:30:01.255Z,6.8
2023-02-24T11:35:59.546Z,6.9
2023-02-24T11:41:54.211Z,7.2
2023-02-24T11:47:59.833Z,7.1
2023-02-24T11:53:54.126Z,7.3
2023-02-24T11:59:51.795Z,7
2023-02-24T12:12:03.123Z,7
2023-02-24T12:36:50.138Z,6.8
2023-02-24T12:57:20.561Z,6.7
2023-02-24T13:09:37.957Z,6.8
2023-02-24T13:15:40.453Z,6.9
2023-02-24T13:27:29.995Z,6.6
2023-02-24T13:33:31.443Z,6.5
2023-02-24T13:39:30.398Z,6.4
2023-02-24T13:45:27.972Z,6.4
2023-02-24T14:09:33.495Z,6.2
2023-02-24T14:16:12.460Z,6.3
2023-02-24T15:11:35.548Z,6.3
2023-02-24T15:29:41.525Z,6.3
2023-02-24T15:35:40.869Z,6.2
2023-02-24T15:42:45.802Z,6.4
2023-02-24T15:54:51.750Z,6.1
2023-02-24T16:19:08.742Z,6.1
2023-02-24T16:25:20.469Z,6.2
2023-02-24T16:31:30.507Z,6.2
2023-02-24T16:37:21.861Z,6.2
2023-02-24T16:43:13.193Z,6.1
2023-02-24T16:49:05.402Z,6.1
2023-02-24T16:54:58.777Z,6.2
2023-02-24T17:00:52.032Z,6
2023-02-24T17:06:49.186Z,6
2023-02-24T17:12:40.224Z,5.9
2023-02-24T17:18:29.320Z,5.8
2023-02-24T17:24:34.143Z,5.8
2023-02-24T17:30:25.840Z,5.7
2023-02-24T17:36:17.478Z,5.8
2023-02-24T17:42:12.232Z,5.8
2023-02-24T17:48:01.563Z,5.7
2023-02-24T17:53:53.339Z,5.7
2023-02-24T17:59:48.873Z,5.8
2023-02-24T18:05:39.154Z,5.8
2023-02-24T18:11:30.631Z,5.8
2023-02-24T18:17:32.442Z,5.8
2023-02-24T18:23:24.246Z,5.7
2023-02-24T18:29:19.405Z,5.7
2023-02-24T18:35:10.574Z,5.8
2023-02-24T18:40:59.985Z,5.8
2023-02-24T18:46:56.946Z,5.8
2023-02-24T18:52:56.408Z,5.8
2023-02-24T18:58:49.551Z,5.8
2023-02-24T19:04:38.978Z,5.8
2023-02-24T19:10:29.754Z,5.8
2023-02-24T19:16:31.401Z,5.8
2023-02-24T19:22:35.108Z,5.9
2023-02-24T19:28:49.075Z,5.9
2023-02-24T19:35:01.670Z,5.9
2023-02-24T19:40:59.640Z,5.9
2023-02-24T19:46:58.372Z,5.9
2023-02-24T19:52:52.972Z,5.8
2023-02-24T19:58:48.694Z,5.9
2023-02-24T20:04:38.673Z,5.9
2023-02-24T20:10:30.198Z,5.9
2023-02-24T20:16:21.385Z,5.5
2023-02-24T20:22:17.270Z,4.9
2023-02-24T20:28:07.152Z,5
2023-02-24T20:33:58.709Z,5.1
2023-02-24T20:39:48.181Z,5.2
2023-02-24T20:45:42.408Z,5.3
2023-02-24T20:51:37.984Z,5.3
2023-02-24T20:57:28.550Z,5.2
2023-02-24T21:03:19.385Z,5.3
2023-02-24T21:09:08.882Z,5.3
2023-02-24T21:15:03.668Z,5.2
2023-02-24T21:20:55.391Z,5.2
2023-02-24T21:26:49.750Z,5.1
2023-02-24T21:32:42.416Z,5.1
2023-02-24T21:38:35.884Z,5.1
2023-02-24T22:03:02.385Z,5.1
2023-02-24T22:21:02.077Z,5.1
2023-02-24T22:27:24.809Z,5
2023-02-24T22:34:01.235Z,5
2023-02-24T22:39:53.980Z,5.1
2023-02-24T22:45:59.452Z,5.1
2023-02-24T22:51:56.432Z,5
2023-02-24T22:57:49.454Z,5.1
2023-02-24T23:03:45.414Z,5
2023-02-24T23:09:43.286Z,5.1
2023-02-24T23:34:51.192Z,5
2023-02-24T23:41:08.287Z,5
2023-02-24T23:47:19.111Z,4.9
2023-02-24T23:59:17.244Z,4.9
